createdAt,value
2019-02-08T00:02:47.400Z,52.90
2019-02-08T00:05:50.077Z,52.90
2019-02-08T00:08:53.730Z,52.90
2019-02-08T00:11:57.410Z,53.10
2019-02-08T00:15:05.935Z,53.20
2019-02-08T00:18:09.907Z,53.20
2019-02-08T00:21:13.721Z,53.30
2019-02-08T00:24:16.698Z,53.50
2019-02-08T00:27:16.980Z,53.60
2019-02-08T00:30:20.713Z,53.40
2019-02-08T00:33:24.169Z,53.20
2019-02-08T00:36:25.656Z,53.20
2019-02-08T00:39:29.038Z,53.00
2019-02-08T00:42:32.151Z,53.00
2019-02-08T00:45:35.844Z,53.00
2019-02-08T00:48:39.528Z,52.90
2019-02-08T00:51:38.818Z,52.80
2019-02-08T00:54:40.595Z,52.70
2019-02-08T00:57:40.061Z,53.00
2019-02-08T01:00:40.327Z,53.20
2019-02-08T01:03:44.225Z,53.10
2019-02-08T01:06:47.748Z,53.20
2019-02-08T01:09:51.504Z,53.50
2019-02-08T01:12:51.120Z,53.70
2019-02-08T01:15:55.642Z,53.80
2019-02-08T01:18:58.684Z,53.80
2019-02-08T01:22:02.341Z,53.90
2019-02-08T01:25:06.496Z,54.10
2019-02-08T01:28:10.080Z,54.00
2019-02-08T01:31:11.354Z,53.80
2019-02-08T01:34:15.074Z,53.80
2019-02-08T01:37:18.433Z,53.70
2019-02-08T01:40:22.698Z,53.70
2019-02-08T01:43:26.935Z,53.60
2019-02-08T01:46:31.157Z,53.40
2019-02-08T01:49:35.320Z,53.40
2019-02-08T01:52:31.615Z,53.30
2019-02-08T01:55:27.313Z,53.20
2019-02-08T02:01:21.914Z,53.10
2019-02-08T02:04:26.299Z,53.10
2019-02-08T02:07:35.105Z,53.10
2019-02-08T02:10:32.782Z,53.80
2019-02-08T02:13:27.792Z,53.10
2019-02-08T02:16:22.913Z,53.00
2019-02-08T02:19:23.698Z,53.00
2019-02-08T02:22:18.654Z,53.00
2019-02-08T02:25:15.012Z,53.00
2019-02-08T02:28:10.247Z,53.00
2019-02-08T02:34:00.570Z,53.00
2019-02-08T02:36:55.913Z,53.10
2019-02-08T02:39:51.034Z,53.10
2019-02-08T02:42:46.519Z,53.10
2019-02-08T02:45:50.015Z,53.20
2019-02-08T02:48:45.235Z,53.30
2019-02-08T02:51:40.805Z,53.30
2019-02-08T02:54:44.610Z,53.40
2019-02-08T02:57:40.154Z,53.40
2019-02-08T03:00:40.792Z,53.50
2019-02-08T03:03:43.828Z,53.50
2019-02-08T03:06:44.950Z,53.60
2019-02-08T03:09:43.809Z,53.70
2019-02-08T03:12:48.246Z,53.80
2019-02-08T03:15:52.503Z,53.90
2019-02-08T03:18:57.074Z,54.10
2019-02-08T03:22:00.905Z,54.10
2019-02-08T03:25:04.131Z,54.20
2019-02-08T03:28:03.658Z,54.20
2019-02-08T03:34:21.572Z,54.30
2019-02-08T03:37:27.736Z,54.20
2019-02-08T03:40:33.795Z,54.10
2019-02-08T03:43:37.228Z,54.30
2019-02-08T03:46:41.121Z,54.30
2019-02-08T03:49:39.335Z,54.40
2019-02-08T03:52:41.274Z,54.60
2019-02-08T03:59:05.116Z,54.70
2019-02-08T04:02:09.581Z,54.80
2019-02-08T04:05:15.995Z,54.80
2019-02-08T04:08:19.521Z,54.80
2019-02-08T04:11:23.236Z,54.80
2019-02-08T04:14:29.852Z,54.80
2019-02-08T04:17:30.944Z,54.90
2019-02-08T04:20:37.325Z,55.10
2019-02-08T04:23:48.064Z,55.20
2019-02-08T04:26:52.464Z,55.10
2019-02-08T04:29:56.014Z,54.80
2019-02-08T04:32:59.741Z,54.80
2019-02-08T04:35:54.572Z,54.70
2019-02-08T04:38:52.067Z,54.80
2019-02-08T04:41:48.278Z,54.80
2019-02-08T04:44:46.168Z,54.90
2019-02-08T04:47:41.065Z,55.00
2019-02-08T04:50:38.981Z,54.90
2019-02-08T04:53:34.640Z,54.90
2019-02-08T04:56:30.026Z,54.70
2019-02-08T04:59:28.355Z,54.50
2019-02-08T05:02:24.442Z,54.40
2019-02-08T05:08:53.937Z,54.40
2019-02-08T05:11:48.825Z,54.70
2019-02-08T05:14:44.043Z,54.80
2019-02-08T05:17:38.637Z,54.90
2019-02-08T05:20:41.549Z,55.00
2019-02-08T05:23:44.202Z,55.20
2019-02-08T05:26:42.098Z,54.90
2019-02-08T05:30:15.145Z,54.90
2019-02-08T05:33:25.891Z,55.00
2019-02-08T05:36:26.087Z,54.80
2019-02-08T05:39:21.731Z,54.90
2019-02-08T05:42:35.661Z,55.20
2019-02-08T05:46:41.796Z,55.40
2019-02-08T05:49:38.261Z,55.60
2019-02-08T05:52:58.067Z,55.90
2019-02-08T05:55:48.257Z,56.10
2019-02-08T05:58:57.241Z,56.00
2019-02-08T06:01:52.880Z,56.10
2019-02-08T06:04:56.587Z,55.80
2019-02-08T06:07:52.730Z,55.70
2019-02-08T06:10:50.086Z,55.70
2019-02-08T06:13:49.237Z,55.60
2019-02-08T06:17:00.498Z,55.50
2019-02-08T06:20:42.570Z,55.50
2019-02-08T06:23:50.654Z,55.50
2019-02-08T06:27:12.156Z,55.60
2019-02-08T06:30:49.782Z,55.50
2019-02-08T06:34:25.476Z,55.50
2019-02-08T06:42:57.262Z,55.00
2019-02-08T06:45:48.774Z,54.60
2019-02-08T06:48:58.471Z,54.00
2019-02-08T06:52:29.079Z,53.50
2019-02-08T06:55:47.522Z,53.70
2019-02-08T06:58:51.653Z,53.60
2019-02-08T07:02:06.569Z,53.40
2019-02-08T07:05:26.419Z,52.70
2019-02-08T07:08:29.486Z,52.00
2019-02-08T07:12:06.446Z,52.50
2019-02-08T07:15:32.037Z,51.60
2019-02-08T07:18:51.098Z,51.70
2019-02-08T07:25:46.622Z,51.80
2019-02-08T07:32:37.377Z,51.40
2019-02-08T07:36:10.995Z,51.60
2019-02-08T07:39:27.564Z,51.80
2019-02-08T07:42:46.346Z,52.30
2019-02-08T07:46:03.510Z,52.90
2019-02-08T07:49:14.849Z,53.70
2019-02-08T07:52:29.668Z,54.80
2019-02-08T07:55:50.552Z,55.10
2019-02-08T07:59:03.638Z,55.40
2019-02-08T08:02:34.331Z,55.90
2019-02-08T08:05:42.460Z,56.60
2019-02-08T08:08:55.600Z,57.70
2019-02-08T08:12:08.518Z,58.30
2019-02-08T08:15:28.449Z,59.20
2019-02-08T08:18:44.560Z,60.00
2019-02-08T08:21:58.714Z,60.70
2019-02-08T08:25:18.983Z,61.30
2019-02-08T08:28:41.291Z,62.20
2019-02-08T08:32:37.300Z,62.40
2019-02-08T08:36:25.971Z,61.90
2019-02-08T08:39:49.822Z,61.80
2019-02-08T08:43:06.718Z,61.80
2019-02-08T08:46:21.215Z,62.20
2019-02-08T08:49:53.455Z,62.40
2019-02-08T08:53:46.080Z,62.30
2019-02-08T08:57:49.052Z,62.10
2019-02-08T09:01:43.294Z,62.50
2019-02-08T09:05:14.421Z,62.80
2019-02-08T09:08:29.613Z,63.10
2019-02-08T09:11:58.800Z,63.40
2019-02-08T09:15:56.897Z,63.60
2019-02-08T09:20:09.856Z,63.40
2019-02-08T09:28:11.971Z,63.80
2019-02-08T09:32:05.672Z,64.30
2019-02-08T09:35:50.746Z,65.20
2019-02-08T09:39:24.028Z,67.40
2019-02-08T09:43:17.236Z,67.80
2019-02-08T09:51:25.730Z,67.30
2019-02-08T09:54:59.940Z,67.50
2019-02-08T09:58:27.534Z,67.70
2019-02-08T10:01:54.703Z,68.10
2019-02-08T10:05:44.615Z,68.30
2019-02-08T10:09:23.554Z,68.10
2019-02-08T10:13:16.126Z,68.10
2019-02-08T10:16:50.587Z,68.30
2019-02-08T10:20:23.357Z,68.30
2019-02-08T10:23:55.929Z,68.10
2019-02-08T10:27:42.238Z,68.10
2019-02-08T10:34:18.395Z,67.70
2019-02-08T10:38:18.345Z,67.30
2019-02-08T10:41:48.416Z,67.20
2019-02-08T10:45:25.187Z,67.60
2019-02-08T10:52:27.380Z,67.40
2019-02-08T10:56:01.634Z,67.10
2019-02-08T10:59:38.413Z,67.20
2019-02-08T11:02:44.867Z,67.50
2019-02-08T11:06:31.553Z,67.30
2019-02-08T11:10:20.849Z,67.50
2019-02-08T11:14:17.434Z,67.40
2019-02-08T11:18:04.125Z,67.20
2019-02-08T11:20:59.783Z,68.00
2019-02-08T11:23:55.625Z,68.50
2019-02-08T11:26:51.412Z,68.50
2019-02-08T11:29:46.697Z,68.50
2019-02-08T11:32:45.052Z,68.30
2019-02-08T11:35:43.826Z,68.60
2019-02-08T11:38:37.035Z,68.60
2019-02-08T11:41:38.424Z,68.80
2019-02-08T11:44:41.063Z,69.20
2019-02-08T11:47:38.866Z,69.40
2019-02-08T11:50:35.560Z,69.40
2019-02-08T11:53:34.192Z,69.30
2019-02-08T11:56:34.619Z,69.30
2019-02-08T11:59:30.632Z,69.20
2019-02-08T12:02:26.882Z,69.10
2019-02-08T12:05:26.206Z,69.00
2019-02-08T12:08:23.524Z,68.90
2019-02-08T12:11:19.283Z,69.10
2019-02-08T12:14:15.804Z,69.20
2019-02-08T12:17:12.258Z,69.00
2019-02-08T12:20:10.328Z,68.70
2019-02-08T12:23:07.230Z,68.70
2019-02-08T12:26:03.122Z,68.70
2019-02-08T12:28:58.041Z,68.70
2019-02-08T12:31:52.925Z,68.80
2019-02-08T12:34:48.800Z,68.70
2019-02-08T12:37:51.359Z,68.90
2019-02-08T12:40:47.268Z,68.90
2019-02-08T12:43:43.217Z,69.20
2019-02-08T12:46:40.759Z,69.40
2019-02-08T12:49:36.313Z,69.60
2019-02-08T12:52:31.450Z,69.60
2019-02-08T12:55:27.838Z,69.80
2019-02-08T12:58:23.614Z,69.80
2019-02-08T13:01:19.171Z,70.00
2019-02-08T13:04:14.541Z,69.90
2019-02-08T13:07:10.394Z,70.00
2019-02-08T13:10:06.973Z,70.00
2019-02-08T13:13:02.305Z,70.10
2019-02-08T13:15:57.538Z,70.30
2019-02-08T13:18:52.869Z,70.50
2019-02-08T13:21:48.242Z,70.60
2019-02-08T13:24:43.282Z,70.60
2019-02-08T13:27:40.625Z,70.50
2019-02-08T13:30:35.643Z,70.50
2019-02-08T13:33:30.904Z,70.60
2019-02-08T13:36:25.738Z,70.70
2019-02-08T13:39:21.337Z,70.80
2019-02-08T13:42:16.147Z,71.10
2019-02-08T13:45:12.461Z,71.10
2019-02-08T13:48:07.479Z,71.20
2019-02-08T13:51:01.994Z,71.20
2019-02-08T13:53:57.103Z,71.20
2019-02-08T13:57:00.210Z,71.20
2019-02-08T13:59:48.463Z,71.10
2019-02-08T14:02:43.986Z,71.00
2019-02-08T14:05:39.238Z,71.00
2019-02-08T14:08:35.732Z,71.00
2019-02-08T14:11:33.558Z,71.40
2019-02-08T14:14:28.952Z,71.50
2019-02-08T14:17:23.861Z,71.60
2019-02-08T14:20:21.508Z,71.70
2019-02-08T14:23:17.010Z,71.70
2019-02-08T14:26:12.268Z,71.80
2019-02-08T14:29:07.574Z,72.00
2019-02-08T14:32:02.691Z,72.00
2019-02-08T14:34:57.324Z,72.00
2019-02-08T14:37:52.591Z,72.10
2019-02-08T14:40:47.569Z,72.10
2019-02-08T14:43:42.496Z,72.10
2019-02-08T14:47:33.870Z,72.10
2019-02-08T14:51:00.423Z,72.20
2019-02-08T14:53:55.349Z,72.30
2019-02-08T14:56:59.697Z,72.60
2019-02-08T14:59:55.083Z,72.80
2019-02-08T15:02:50.947Z,73.00
2019-02-08T15:05:46.147Z,73.00
2019-02-08T15:08:40.893Z,73.00
2019-02-08T15:11:35.562Z,73.00
2019-02-08T15:14:30.476Z,73.20
2019-02-08T15:17:25.290Z,73.30
2019-02-08T15:20:23.370Z,73.50
2019-02-08T15:23:18.343Z,73.80
2019-02-08T15:26:12.927Z,74.00
2019-02-08T15:29:07.916Z,74.10
2019-02-08T15:32:02.728Z,74.10
2019-02-08T15:34:57.309Z,74.10
2019-02-08T15:37:52.270Z,74.30
2019-02-08T15:40:49.840Z,74.30
2019-02-08T15:43:45.061Z,74.30
2019-02-08T15:46:39.827Z,74.30
2019-02-08T15:49:34.523Z,74.20
2019-02-08T15:52:29.393Z,74.10
2019-02-08T15:55:26.849Z,74.10
2019-02-08T15:58:21.958Z,74.20
2019-02-08T16:01:17.365Z,74.10
2019-02-08T16:04:12.167Z,74.10
2019-02-08T16:07:06.861Z,74.00
2019-02-08T16:10:01.892Z,74.00
2019-02-08T16:12:56.537Z,73.80
2019-02-08T16:15:51.605Z,74.10
2019-02-08T16:18:47.042Z,73.90
2019-02-08T16:21:42.302Z,74.00
2019-02-08T16:24:37.002Z,73.80
2019-02-08T16:27:38.764Z,73.70
2019-02-08T16:30:28.960Z,73.80
2019-02-08T16:33:23.681Z,73.60
2019-02-08T16:36:18.293Z,73.70
2019-02-08T16:39:14.920Z,74.00
2019-02-08T16:42:09.518Z,74.10
2019-02-08T16:45:04.175Z,74.10
2019-02-08T16:47:59.937Z,74.10
2019-02-08T16:50:54.968Z,74.00
2019-02-08T16:53:53.571Z,74.00
2019-02-08T16:56:45.839Z,73.90
2019-02-08T16:59:40.382Z,73.90
2019-02-08T17:02:35.054Z,74.10
2019-02-08T17:05:31.008Z,74.20
2019-02-08T17:08:25.578Z,74.20
2019-02-08T17:11:20.330Z,74.50
2019-02-08T17:14:15.130Z,74.70
2019-02-08T17:17:10.057Z,74.70
2019-02-08T17:20:05.260Z,74.70
2019-02-08T17:22:59.964Z,74.70
2019-02-08T17:25:54.748Z,74.70
2019-02-08T17:28:49.599Z,74.80
2019-02-08T17:31:44.524Z,74.60
2019-02-08T17:34:39.359Z,74.80
2019-02-08T17:37:34.178Z,74.80
2019-02-08T17:40:30.898Z,74.80
2019-02-08T17:43:26.397Z,74.90
2019-02-08T17:46:21.500Z,75.00
2019-02-08T17:49:16.876Z,75.10
2019-02-08T17:52:11.584Z,75.20
2019-02-08T17:55:07.064Z,75.10
2019-02-08T17:58:03.909Z,75.00
2019-02-08T18:00:59.826Z,75.00
2019-02-08T18:03:54.863Z,75.20
2019-02-08T18:06:49.795Z,75.20
2019-02-08T18:09:44.770Z,75.30
2019-02-08T18:12:39.757Z,75.40
2019-02-08T18:15:34.517Z,75.50
2019-02-08T18:18:31.346Z,75.50
2019-02-08T18:21:25.955Z,75.60
2019-02-08T18:24:20.655Z,75.60
2019-02-08T18:27:15.472Z,75.70
2019-02-08T18:30:11.408Z,75.90
2019-02-08T18:33:06.190Z,75.90
2019-02-08T18:36:00.931Z,75.90
2019-02-08T18:38:57.264Z,76.00
2019-02-08T18:41:50.843Z,76.00
2019-02-08T18:44:45.794Z,76.00
2019-02-08T18:47:41.063Z,76.00
2019-02-08T18:50:41.368Z,76.00
2019-02-08T18:53:36.099Z,76.20
2019-02-08T18:56:30.719Z,76.10
2019-02-08T18:59:26.212Z,76.20
2019-02-08T19:02:20.977Z,76.20
2019-02-08T19:05:16.870Z,76.30
2019-02-08T19:08:12.332Z,76.20
2019-02-08T19:11:07.379Z,76.20
2019-02-08T19:14:02.030Z,76.20
2019-02-08T19:16:56.997Z,76.20
2019-02-08T19:19:51.896Z,76.10
2019-02-08T19:22:47.244Z,76.20
2019-02-08T19:25:44.148Z,76.20
2019-02-08T19:28:38.907Z,76.40
2019-02-08T19:31:33.835Z,76.40
2019-02-08T19:34:29.356Z,76.50
2019-02-08T19:37:24.198Z,76.60
2019-02-08T19:40:24.281Z,76.70
2019-02-08T19:43:19.167Z,76.80
2019-02-08T19:46:13.933Z,76.90
2019-02-08T19:49:08.544Z,77.00
2019-02-08T19:52:03.415Z,76.70
2019-02-08T19:54:58.366Z,77.20
2019-02-08T19:57:53.462Z,77.30
2019-02-08T20:00:49.468Z,77.40
2019-02-08T20:03:44.251Z,77.50
2019-02-08T20:06:39.066Z,77.60
2019-02-08T20:09:33.984Z,77.50
2019-02-08T20:12:29.383Z,77.70
2019-02-08T20:15:24.278Z,77.60
2019-02-08T20:18:19.508Z,77.70
2019-02-08T20:21:14.059Z,77.70
2019-02-08T20:24:09.217Z,78.00
2019-02-08T20:27:04.040Z,78.10
2019-02-08T20:29:58.727Z,78.00
2019-02-08T20:32:53.517Z,78.10
2019-02-08T20:35:48.086Z,78.30
2019-02-08T20:38:42.889Z,78.40
2019-02-08T20:41:37.717Z,78.50
2019-02-08T20:44:32.697Z,78.50
2019-02-08T20:47:27.549Z,78.50
2019-02-08T20:50:22.785Z,78.60
2019-02-08T20:53:17.817Z,78.80
2019-02-08T20:56:12.905Z,79.10
2019-02-08T20:59:07.775Z,79.50
2019-02-08T21:02:02.761Z,79.20
2019-02-08T21:04:57.677Z,79.00
2019-02-08T21:07:52.388Z,79.00
2019-02-08T21:10:47.521Z,78.70
2019-02-08T21:13:42.223Z,78.80
2019-02-08T21:16:37.123Z,78.60
2019-02-08T21:19:32.670Z,78.50
2019-02-08T21:22:27.175Z,78.50
2019-02-08T21:25:25.371Z,78.00
2019-02-08T21:28:20.443Z,77.60
2019-02-08T21:31:15.216Z,77.50
2019-02-08T21:34:10.045Z,77.50
2019-02-08T21:37:04.860Z,77.60
2019-02-08T21:39:59.433Z,77.60
2019-02-08T21:42:54.265Z,77.50
2019-02-08T21:45:50.078Z,77.40
2019-02-08T21:48:44.883Z,77.40
2019-02-08T21:51:39.530Z,77.20
2019-02-08T21:54:34.323Z,77.10
2019-02-08T21:57:28.887Z,77.00
2019-02-08T22:00:47.850Z,76.90
2019-02-08T22:03:42.540Z,76.50
2019-02-08T22:06:37.185Z,75.90
2019-02-08T22:09:31.874Z,75.90
2019-02-08T22:12:26.729Z,75.70
2019-02-08T22:15:24.219Z,75.80
2019-02-08T22:18:19.060Z,75.80
2019-02-08T22:21:13.661Z,74.80
2019-02-08T22:24:08.771Z,74.10
2019-02-08T22:27:03.331Z,73.20
2019-02-08T22:29:58.335Z,72.70
2019-02-08T22:32:55.745Z,72.30
2019-02-08T22:35:50.717Z,72.00
2019-02-08T22:38:45.324Z,71.90
2019-02-08T22:41:40.393Z,71.70
2019-02-08T22:44:35.267Z,71.70
2019-02-08T22:47:29.789Z,71.70
2019-02-08T22:50:24.654Z,71.70
2019-02-08T22:53:19.202Z,71.40
2019-02-08T22:56:13.924Z,71.10
2019-02-08T22:59:09.153Z,70.80
2019-02-08T23:02:04.759Z,70.70
2019-02-08T23:04:59.311Z,70.20
2019-02-08T23:07:54.102Z,68.70
2019-02-08T23:10:48.668Z,68.20
2019-02-08T23:13:43.508Z,68.30
2019-02-08T23:16:38.306Z,67.90
2019-02-08T23:19:33.171Z,67.90
2019-02-08T23:22:28.027Z,67.40
2019-02-08T23:25:22.768Z,67.10
2019-02-08T23:28:17.467Z,66.80
2019-02-08T23:31:12.030Z,66.60
2019-02-08T23:34:06.728Z,66.20
2019-02-08T23:37:01.478Z,64.80
2019-02-08T23:39:56.139Z,65.00
2019-02-08T23:42:50.916Z,64.50
2019-02-08T23:45:45.939Z,63.50
2019-02-08T23:48:40.779Z,63.90
2019-02-08T23:51:35.324Z,63.60
2019-02-08T23:54:29.983Z,63.80
2019-02-08T23:57:24.726Z,63.60
